Terminal Aerodrome Forecast
Issued by NWS Mt. Holly, NJ

Home | Current Version | Previous Version | Text Only | Print | Product List | Glossary On
Versions: 1 2 3 4 5 6 7 8 9 10 11 12 13 14 15 16 17 18 19 20 21 22 23 24 25 26 27 28 29 30 31 32 33
000
FTUS41 KPHI 250030 AAA
TAFPHL
TAF AMD
KPHL 250030Z 2501/2606 22003KT P6SM TS FEW025 SCT050CB BKN120
      TEMPO 2501/2503 4SM -TSRA OVC025CB
     FM250300 05008KT P6SM BKN025
     FM250900 01005KT P6SM SCT007 BKN010
     FM251800 02006KT P6SM BKN025
     FM252200 03006KT P6SM BKN025
     FM260200 06005KT P6SM BKN035=

USA.gov is the U.S. government's official web portal to all federal, state and local government web resources and services.